TAF KLAX
KLAX 090557Z 0906/1012 24006KT P6SM BKN012 FM091500 24008KT P6SM VCSH BKN015 FM091900 25012KT 4SM -RA BR BKN010 FM100200 25018KT P6SM SCT015 FM100500 28012KT P6SM SCT250 FM100900 36006KT P6SM SKC=
METAR KLAX
KLAX 090553Z 24006KT 10SM BKN012 15/13 A3000 RMK AO2 SLP158 T01500128 10161 20144 55000 ?
KLAX 090453Z 23007KT 10SM FEW012 15/13 A3000 RMK AO2 SLP158 T01500128 ?
SPECI KLAX 090443Z 24008KT 10SM FEW012 15/13 A3000 RMK AO2 T01500128 ?
KLAX 090353Z 23008KT 10SM BKN011 15/13 A3000 RMK AO2 SLP158 T01500128 ?
SPECI KLAX 090319Z 25009KT 10SM OVC010 15/13 A3000 RMK AO2 T01500128
WC KLAX
WS KLAX
WV KLAX